Time;durP1;ratioP1;P1;durP2;ratioP2;P2;SDS_P1;SDS_P2;PMS_P1;PMS_P2;Temp;Humidity;BMP_temperature;BMP_pressure;BME280_temperature;BME280_humidity;BME280_pressure;Samples;Min_cycle;Max_cycle;Signal;HPM_P1;HPM_P2
2022/08/25 00:01:29;;;;;;;4.35;3.40;;;22.90;96.70;;;;;;5032917;28;20084;-34
2022/08/25 00:03:56;;;;;;;6.40;3.87;;;22.90;97.10;;;;;;5035633;28;20060;-34
2022/08/25 00:06:22;;;;;;;4.63;3.33;;;22.80;96.50;;;;;;5039495;28;20052;-34
2022/08/25 00:08:48;;;;;;;7.80;3.30;;;22.80;96.50;;;;;;5040537;28;20108;-34
2022/08/25 00:11:21;;;;;;;5.22;3.78;;;22.80;96.30;;;;;;5045993;28;20494;-34
2022/08/25 00:13:51;;;;;;;4.78;3.90;;;22.70;96.20;;;;;;5041477;28;20052;-33
2022/08/25 00:16:19;;;;;;;5.55;3.20;;;22.70;96.10;;;;;;5039887;28;20049;-33
2022/08/25 00:18:48;;;;;;;5.25;3.33;;;22.70;96.00;;;;;;5044630;28;20082;-34
2022/08/25 00:21:14;;;;;;;4.70;3.17;;;22.70;96.00;;;;;;5043157;28;20045;-34
2022/08/25 00:23:41;;;;;;;6.43;2.85;;;22.80;95.30;;;;;;5039811;28;20041;-35
2022/08/25 00:26:08;;;;;;;5.18;3.25;;;22.80;94.90;;;;;;5040676;28;20077;-34
2022/08/25 00:28:35;;;;;;;5.97;3.65;;;22.70;94.60;;;;;;5035877;28;20033;-35
2022/08/25 00:31:02;;;;;;;5.28;3.30;;;22.80;94.50;;;;;;5042027;28;20094;-37
2022/08/25 00:33:30;;;;;;;5.45;3.17;;;22.70;94.20;;;;;;5044120;28;20437;-35
2022/08/25 00:35:56;;;;;;;5.22;2.85;;;22.70;93.90;;;;;;5056904;28;20509;-36
2022/08/25 00:38:23;;;;;;;7.13;3.40;;;22.70;93.80;;;;;;5042806;28;20045;-34
2022/08/25 00:41:04;;;;;;;5.97;3.17;;;22.70;93.70;;;;;;5043240;28;20094;-35
2022/08/25 00:43:50;;;;;;;6.00;2.83;;;22.70;93.60;;;;;;5034130;28;20048;-36
2022/08/25 00:46:20;;;;;;;3.53;2.33;;;22.70;93.30;;;;;;5041034;28;20299;-35
2022/08/25 00:48:49;;;;;;;4.43;2.88;;;22.60;93.70;;;;;;5036642;28;20068;-37
2022/08/25 00:51:26;;;;;;;6.63;2.72;;;22.60;93.20;;;;;;5033848;28;20129;-36
2022/08/25 00:53:52;;;;;;;4.18;2.85;;;22.60;93.00;;;;;;5036835;28;20053;-35
2022/08/25 00:56:18;;;;;;;4.93;3.10;;;22.60;93.00;;;;;;5035428;28;20041;-34
2022/08/25 00:58:44;;;;;;;5.65;2.95;;;22.50;92.70;;;;;;5037742;28;20041;-35
2022/08/25 01:01:10;;;;;;;7.40;3.20;;;22.50;92.70;;;;;;5032026;28;20045;-34
2022/08/25 01:03:35;;;;;;;6.63;2.97;;;22.50;92.60;;;;;;5037124;28;20045;-34
2022/08/25 01:06:03;;;;;;;4.25;2.80;;;22.40;92.40;;;;;;5032243;28;20045;-37
2022/08/25 01:08:31;;;;;;;4.32;3.20;;;22.40;92.30;;;;;;5042790;28;20037;-36
2022/08/25 01:11:00;;;;;;;7.43;3.30;;;22.40;92.20;;;;;;5030330;28;20402;-35
2022/08/25 01:13:44;;;;;;;3.55;2.85;;;22.40;91.90;;;;;;5035926;28;20124;-36
2022/08/25 01:16:11;;;;;;;5.10;3.00;;;22.40;91.70;;;;;;5031250;28;20116;-35
2022/08/25 01:18:52;;;;;;;5.63;2.83;;;22.40;91.50;;;;;;5036242;28;20052;-35
2022/08/25 01:21:21;;;;;;;4.63;2.75;;;22.30;91.10;;;;;;5030470;28;20048;-37
2022/08/25 01:23:48;;;;;;;7.30;2.92;;;22.30;91.00;;;;;;5038117;28;20811;-34
2022/08/25 01:26:19;;;;;;;6.00;2.90;;;22.30;90.70;;;;;;5038797;28;20487;-35
2022/08/25 01:31:32;;;;;;;3.45;2.50;;;22.20;90.30;;;;;;5040029;28;20080;-35
2022/08/25 01:33:58;;;;;;;3.25;2.70;;;22.20;90.20;;;;;;5043779;28;20036;-36
2022/08/25 01:36:26;;;;;;;4.85;2.40;;;22.20;89.90;;;;;;5036441;28;20041;-36
2022/08/25 01:38:52;;;;;;;6.80;2.45;;;22.20;89.70;;;;;;5035627;28;20041;-42
2022/08/25 01:41:30;;;;;;;5.32;2.30;;;22.20;89.30;;;;;;5037210;28;20043;-37
2022/08/25 01:43:56;;;;;;;4.25;2.63;;;22.20;88.60;;;;;;5037690;28;20044;-35
2022/08/25 01:46:21;;;;;;;3.80;2.28;;;22.10;88.50;;;;;;5035712;28;20056;-36
2022/08/25 01:48:47;;;;;;;5.20;2.58;;;22.10;88.30;;;;;;5038860;28;20033;-36
2022/08/25 01:51:19;;;;;;;6.95;2.83;;;22.10;87.80;;;;;;5034684;28;20035;-36
2022/08/25 01:53:45;;;;;;;5.55;2.63;;;22.10;87.50;;;;;;5037534;28;20033;-36
2022/08/25 01:56:14;;;;;;;3.88;2.60;;;22.00;87.00;;;;;;5038535;28;20056;-36
2022/08/25 01:58:48;;;;;;;3.88;2.63;;;22.00;86.70;;;;;;5040541;28;20057;-35
2022/08/25 02:01:20;;;;;;;4.18;2.40;;;22.00;86.20;;;;;;5040687;28;20048;-35
2022/08/25 02:03:49;;;;;;;4.33;2.30;;;22.00;86.10;;;;;;5036860;28;20167;-36
2022/08/25 02:06:22;;;;;;;6.72;2.45;;;21.90;85.90;;;;;;5034886;28;20382;-36
2022/08/25 02:08:53;;;;;;;4.88;2.45;;;21.90;85.60;;;;;;5024321;28;20040;-37
2022/08/25 02:11:19;;;;;;;4.60;2.55;;;21.90;85.20;;;;;;5041819;28;20041;-35
2022/08/25 02:13:44;;;;;;;5.50;2.20;;;21.90;85.10;;;;;;5031969;28;20033;-35
2022/08/25 02:16:17;;;;;;;6.65;2.03;;;21.90;84.90;;;;;;5038682;28;20048;-35
2022/08/25 02:18:45;;;;;;;4.53;2.28;;;21.80;84.80;;;;;;5031143;28;20179;-35
2022/08/25 02:21:10;;;;;;;5.35;2.22;;;21.80;84.70;;;;;;5030980;28;20633;-37
2022/08/25 02:23:36;;;;;;;4.68;2.50;;;21.80;84.70;;;;;;5027366;28;20087;-37
2022/08/25 02:26:03;;;;;;;3.55;2.03;;;21.80;84.80;;;;;;5040353;28;20037;-35
2022/08/25 02:28:29;;;;;;;4.78;2.53;;;21.80;84.60;;;;;;5033009;28;20041;-35
2022/08/25 02:30:54;;;;;;;5.97;2.00;;;21.70;84.50;;;;;;5031454;28;20091;-34
2022/08/25 02:33:21;;;;;;;4.20;1.98;;;21.70;84.30;;;;;;5038060;28;20049;-35
2022/08/25 02:35:47;;;;;;;3.80;2.13;;;21.70;84.30;;;;;;5037721;28;20049;-35
2022/08/25 02:38:12;;;;;;;3.85;2.25;;;21.70;84.10;;;;;;5041103;28;20460;-36
2022/08/25 02:40:38;;;;;;;4.57;2.20;;;21.60;84.00;;;;;;5031573;28;20037;-35
2022/08/25 02:43:04;;;;;;;6.18;2.42;;;21.70;84.00;;;;;;5032861;28;20048;-35
2022/08/25 02:45:30;;;;;;;5.35;3.40;;;21.60;83.90;;;;;;5039868;28;20053;-35
2022/08/25 02:47:56;;;;;;;7.20;2.47;;;21.60;83.80;;;;;;5036042;28;20051;-35
2022/08/25 02:50:22;;;;;;;3.65;2.17;;;21.60;83.70;;;;;;5034182;28;20064;-36
2022/08/25 02:52:49;;;;;;;6.15;2.08;;;21.60;83.60;;;;;;5032279;28;20041;-35
2022/08/25 02:55:16;;;;;;;4.93;2.10;;;21.50;83.60;;;;;;5030325;28;20037;-35
2022/08/25 02:57:42;;;;;;;4.05;2.20;;;21.50;83.60;;;;;;5031424;28;20052;-35
2022/08/25 03:00:10;;;;;;;5.90;2.13;;;21.50;83.60;;;;;;5030393;28;20037;-36
2022/08/25 03:02:36;;;;;;;3.08;2.05;;;21.50;83.60;;;;;;5039986;28;20037;-35
2022/08/25 03:05:03;;;;;;;3.67;2.17;;;21.40;83.60;;;;;;5032530;28;20096;-36
2022/08/25 03:07:29;;;;;;;5.75;2.15;;;21.40;83.60;;;;;;5034619;28;20035;-36
2022/08/25 03:09:54;;;;;;;3.35;2.03;;;21.40;83.70;;;;;;5037853;28;20051;-35
2022/08/25 03:12:21;;;;;;;6.50;2.35;;;21.40;83.70;;;;;;5036062;28;20049;-35
2022/08/25 03:14:47;;;;;;;2.95;1.92;;;21.30;83.60;;;;;;5037985;28;20119;-35
2022/08/25 03:17:13;;;;;;;3.53;1.77;;;21.30;83.70;;;;;;5033991;28;20487;-35
2022/08/25 03:19:39;;;;;;;3.90;2.00;;;21.30;83.70;;;;;;5031834;28;20079;-35
2022/08/25 03:22:04;;;;;;;4.13;2.15;;;21.30;83.80;;;;;;5035792;28;20072;-36
2022/08/25 03:24:31;;;;;;;4.95;2.40;;;21.30;83.90;;;;;;5035050;28;20041;-36
2022/08/25 03:26:56;;;;;;;5.53;2.53;;;21.20;83.90;;;;;;5040652;28;20041;-35
2022/08/25 03:29:24;;;;;;;3.55;2.03;;;21.20;83.90;;;;;;5038047;28;20072;-35
2022/08/25 03:31:51;;;;;;;5.93;2.13;;;21.20;84.00;;;;;;5021391;28;20046;-35
2022/08/25 03:34:18;;;;;;;7.43;2.38;;;21.20;84.20;;;;;;5036568;28;20049;-35
2022/08/25 03:36:46;;;;;;;4.38;2.30;;;21.20;84.30;;;;;;5036559;28;20041;-34
2022/08/25 03:39:12;;;;;;;3.95;1.90;;;21.10;84.10;;;;;;5035318;28;20462;-35
2022/08/25 03:41:38;;;;;;;4.75;2.45;;;21.10;84.30;;;;;;5032934;28;20033;-34
2022/08/25 03:44:06;;;;;;;5.35;2.30;;;21.10;84.30;;;;;;5033489;28;20079;-37
2022/08/25 03:46:42;;;;;;;4.75;2.10;;;21.10;84.20;;;;;;5043421;28;20054;-35
2022/08/25 03:49:13;;;;;;;7.88;1.98;;;21.00;84.20;;;;;;5043550;28;20136;-34
2022/08/25 03:51:44;;;;;;;7.15;2.15;;;21.00;84.20;;;;;;5040280;28;20037;-34
2022/08/25 03:54:10;;;;;;;4.43;1.98;;;21.00;84.40;;;;;;5033255;28;20099;-35
2022/08/25 03:56:37;;;;;;;2.65;1.67;;;20.90;84.40;;;;;;5043887;28;20077;-34
2022/08/25 03:59:03;;;;;;;3.17;1.70;;;20.90;84.40;;;;;;5036541;28;20120;-34
2022/08/25 04:01:29;;;;;;;6.78;1.92;;;20.90;84.50;;;;;;5042167;28;20531;-34
2022/08/25 04:03:54;;;;;;;4.78;2.00;;;20.80;84.60;;;;;;5036268;28;20065;-35
2022/08/25 04:06:21;;;;;;;6.22;2.00;;;20.80;84.70;;;;;;5037225;28;20049;-36
2022/08/25 04:08:47;;;;;;;6.30;2.05;;;20.80;84.80;;;;;;5044872;28;20076;-35
2022/08/25 04:11:19;;;;;;;7.45;2.50;;;20.80;84.90;;;;;;5043086;28;20033;-35
2022/08/25 04:13:46;;;;;;;4.47;2.08;;;20.70;84.90;;;;;;5043032;28;20051;-36
2022/08/25 04:16:20;;;;;;;3.78;2.20;;;20.80;85.10;;;;;;5034449;28;20128;-35
2022/08/25 04:18:48;;;;;;;6.15;1.90;;;20.70;85.00;;;;;;5034354;28;20106;-36
2022/08/25 04:21:15;;;;;;;4.32;2.30;;;20.70;85.30;;;;;;5048778;28;20144;-34
2022/08/25 04:23:43;;;;;;;6.18;2.47;;;20.70;85.30;;;;;;5037837;28;20080;-35
2022/08/25 04:26:15;;;;;;;6.88;2.38;;;20.60;85.30;;;;;;5042098;28;20041;-34
2022/08/25 04:28:41;;;;;;;5.80;2.60;;;20.60;85.50;;;;;;5041894;28;20034;-34
2022/08/25 04:31:08;;;;;;;4.47;2.10;;;20.60;85.70;;;;;;5045700;28;20038;-34
2022/08/25 04:33:36;;;;;;;5.18;2.55;;;20.50;86.70;;;;;;5041530;28;20073;-35
2022/08/25 04:36:04;;;;;;;4.28;2.30;;;20.50;85.90;;;;;;5036413;28;20079;-35
2022/08/25 04:38:31;;;;;;;5.47;2.50;;;20.50;85.90;;;;;;5035492;28;20084;-34
2022/08/25 04:41:01;;;;;;;7.65;2.17;;;20.50;85.90;;;;;;5035117;28;20084;-34
2022/08/25 04:43:28;;;;;;;5.82;2.17;;;20.50;85.90;;;;;;5041252;28;20091;-34
2022/08/25 04:45:54;;;;;;;4.93;2.80;;;20.40;86.00;;;;;;5046645;28;20076;-34
2022/08/25 04:48:20;;;;;;;3.60;2.53;;;20.40;86.00;;;;;;5035859;28;20577;-34
2022/08/25 04:50:46;;;;;;;3.83;2.38;;;20.40;86.30;;;;;;5048692;28;20048;-35
2022/08/25 04:53:13;;;;;;;3.63;2.20;;;20.40;86.40;;;;;;5048387;28;20045;-35
2022/08/25 04:55:41;;;;;;;3.85;2.05;;;20.40;86.50;;;;;;5037156;28;20041;-34
2022/08/25 04:58:06;;;;;;;7.93;2.45;;;20.40;86.80;;;;;;5039155;28;20045;-34
2022/08/25 05:00:34;;;;;;;4.93;2.20;;;20.40;86.80;;;;;;5044143;28;20049;-35
2022/08/25 05:03:00;;;;;;;5.10;2.38;;;20.30;86.70;;;;;;5039727;28;20125;-34
2022/08/25 05:05:26;;;;;;;4.90;2.28;;;20.30;86.90;;;;;;5050279;28;20075;-34
2022/08/25 05:07:53;;;;;;;4.95;2.60;;;20.40;86.90;;;;;;5035211;28;20049;-35
2022/08/25 05:10:19;;;;;;;7.05;2.67;;;20.30;86.90;;;;;;5043547;28;20037;-35
2022/08/25 05:12:45;;;;;;;10.02;2.90;;;20.40;87.00;;;;;;5048905;28;20037;-38
2022/08/25 05:17:55;;;;;;;3.63;2.40;;;20.30;87.20;;;;;;5046719;28;20049;-34
2022/08/25 05:20:21;;;;;;;5.03;2.38;;;20.40;87.30;;;;;;5044029;28;20122;-34
2022/08/25 05:22:47;;;;;;;5.00;2.60;;;20.30;88.30;;;;;;5037905;28;20552;-34
2022/08/25 05:25:13;;;;;;;3.20;2.42;;;20.30;87.30;;;;;;5042714;28;20044;-36
2022/08/25 05:27:40;;;;;;;4.85;2.40;;;20.30;87.40;;;;;;5042110;28;20049;-34
2022/08/25 05:30:06;;;;;;;4.50;2.30;;;20.40;87.50;;;;;;5036825;28;20029;-34
2022/08/25 05:32:32;;;;;;;4.75;2.47;;;20.40;87.40;;;;;;5037038;28;20486;-35
2022/08/25 05:34:58;;;;;;;4.18;2.40;;;20.40;87.50;;;;;;5045577;28;20033;-35
2022/08/25 05:37:23;;;;;;;5.25;2.72;;;20.40;87.50;;;;;;5042180;28;20040;-35
2022/08/25 05:39:49;;;;;;;7.22;2.67;;;20.40;87.50;;;;;;5041634;28;20503;-34
2022/08/25 05:42:15;;;;;;;4.10;2.65;;;20.50;87.60;;;;;;5042276;28;20624;-34
2022/08/25 05:44:41;;;;;;;7.35;2.25;;;20.50;87.50;;;;;;5040549;28;20562;-34
2022/08/25 05:47:06;;;;;;;4.57;2.67;;;20.50;87.50;;;;;;5033200;28;20081;-34
2022/08/25 05:49:32;;;;;;;6.00;2.45;;;20.60;87.50;;;;;;5042862;28;20040;-34
2022/08/25 05:51:58;;;;;;;5.85;2.63;;;20.60;87.40;;;;;;5038077;28;20041;-35
2022/08/25 05:54:24;;;;;;;4.82;2.60;;;20.60;87.20;;;;;;5043214;28;20041;-34
2022/08/25 05:56:50;;;;;;;4.43;2.22;;;20.70;87.20;;;;;;5037554;28;20033;-34
2022/08/25 05:59:16;;;;;;;5.47;2.95;;;20.70;87.10;;;;;;5039217;28;20044;-33
2022/08/25 06:04:26;;;;;;;2.80;2.08;;;20.90;86.80;;;;;;5039655;28;20503;-35
2022/08/25 06:06:53;;;;;;;5.07;2.40;;;20.90;86.70;;;;;;5034144;28;20509;-35
2022/08/25 06:09:20;;;;;;;6.20;2.85;;;21.00;86.60;;;;;;5030788;28;20036;-34
2022/08/25 06:11:46;;;;;;;4.07;2.40;;;21.10;86.60;;;;;;5032223;28;20562;-34
2022/08/25 06:14:12;;;;;;;5.78;2.45;;;21.10;86.40;;;;;;5034079;28;20478;-37
2022/08/25 06:16:39;;;;;;;4.47;2.30;;;21.20;86.40;;;;;;5033141;28;20060;-35
2022/08/25 06:19:06;;;;;;;4.32;2.15;;;21.20;86.30;;;;;;5036715;28;20087;-35
2022/08/25 06:21:31;;;;;;;2.65;1.38;;;21.30;86.20;;;;;;5042334;28;20414;-35
2022/08/25 06:23:57;;;;;;;4.55;2.58;;;21.50;85.70;;;;;;5041913;28;20052;-36
2022/08/25 06:26:24;;;;;;;4.07;2.83;;;21.60;84.80;;;;;;5040317;28;20123;-37
2022/08/25 06:28:50;;;;;;;4.03;2.50;;;21.80;84.20;;;;;;5037611;28;20033;-36
2022/08/25 06:31:16;;;;;;;4.88;1.75;;;21.90;84.00;;;;;;5036529;28;20095;-35
2022/08/25 06:33:43;;;;;;;5.60;2.75;;;21.90;83.80;;;;;;5043047;28;20037;-40
2022/08/25 06:36:08;;;;;;;3.60;2.30;;;22.00;83.80;;;;;;5041054;28;20048;-36
2022/08/25 06:38:34;;;;;;;3.35;2.38;;;22.00;83.60;;;;;;5038499;28;20060;-40
2022/08/25 06:41:05;;;;;;;8.45;2.45;;;22.10;83.40;;;;;;5034964;28;20367;-36
2022/08/25 06:43:32;;;;;;;4.60;2.53;;;22.10;83.20;;;;;;5037247;28;20049;-35
2022/08/25 06:46:14;;;;;;;3.55;2.05;;;22.20;83.30;;;;;;5040995;28;20052;-36
2022/08/25 06:48:40;;;;;;;8.77;2.60;;;22.20;83.10;;;;;;5035908;28;20041;-36
2022/08/25 06:51:07;;;;;;;5.57;2.50;;;22.20;83.30;;;;;;5036420;28;20288;-36
2022/08/25 06:53:34;;;;;;;4.95;2.67;;;22.20;83.50;;;;;;5033471;28;20083;-36
2022/08/25 06:56:00;;;;;;;4.10;2.63;;;22.30;83.30;;;;;;5036413;28;20143;-36
2022/08/25 06:58:25;;;;;;;6.43;2.72;;;22.40;83.10;;;;;;5042124;28;20514;-37
2022/08/25 07:00:51;;;;;;;8.10;2.05;;;22.40;82.90;;;;;;5041134;28;20087;-36
2022/08/25 07:03:17;;;;;;;6.93;2.50;;;22.50;82.70;;;;;;5032047;28;20045;-37
2022/08/25 07:05:53;;;;;;;4.47;2.72;;;22.60;82.40;;;;;;5038553;28;20045;-36
2022/08/25 07:08:19;;;;;;;4.10;2.70;;;22.70;82.20;;;;;;5039002;28;20072;-37
2022/08/25 07:10:46;;;;;;;6.00;2.85;;;22.80;81.90;;;;;;5035678;28;20030;-37
2022/08/25 07:13:12;;;;;;;7.00;2.88;;;22.80;81.70;;;;;;5043866;28;20044;-36
2022/08/25 07:15:38;;;;;;;4.03;2.63;;;22.90;81.60;;;;;;5043865;28;20086;-37
2022/08/25 07:18:04;;;;;;;9.43;2.88;;;22.90;81.60;;;;;;5045555;28;20469;-37
2022/08/25 07:20:38;;;;;;;3.30;2.05;;;23.00;81.60;;;;;;5036929;28;20080;-44
2022/08/25 07:23:04;;;;;;;7.97;2.42;;;23.00;81.40;;;;;;5037891;28;20052;-37
2022/08/25 07:25:30;;;;;;;6.50;2.35;;;23.10;81.70;;;;;;5041883;28;20076;-37
2022/08/25 07:27:56;;;;;;;4.10;2.42;;;23.20;81.40;;;;;;5037551;28;20071;-39
2022/08/25 07:30:22;;;;;;;6.07;2.38;;;23.20;81.40;;;;;;5038585;28;20258;-37
2022/08/25 07:32:48;;;;;;;8.27;3.00;;;23.30;81.00;;;;;;5036404;28;20048;-36
2022/08/25 07:35:16;;;;;;;5.97;2.97;;;23.40;81.20;;;;;;5034775;28;20102;-38
2022/08/25 07:37:44;;;;;;;3.78;2.28;;;23.40;81.50;;;;;;5040880;28;20075;-36
2022/08/25 07:40:32;;;;;;;4.45;2.42;;;23.40;81.30;;;;;;5035231;28;20372;-36
2022/08/25 07:43:00;;;;;;;10.77;2.63;;;23.50;81.10;;;;;;5034823;28;20128;-37
2022/08/25 07:45:30;;;;;;;5.35;2.17;;;23.60;81.00;;;;;;5034526;28;20041;-37
2022/08/25 07:48:02;;;;;;;3.10;1.67;;;23.70;80.80;;;;;;5035974;28;20115;-36
2022/08/25 07:50:31;;;;;;;5.63;2.92;;;23.70;80.50;;;;;;5037787;28;20530;-36
2022/08/25 07:52:59;;;;;;;2.95;1.73;;;23.80;80.40;;;;;;5038437;28;20025;-37
2022/08/25 07:55:26;;;;;;;6.15;2.60;;;23.90;80.20;;;;;;5040977;28;20136;-37
2022/08/25 07:57:53;;;;;;;5.90;2.20;;;24.00;79.90;;;;;;5038004;28;20044;-36
2022/08/25 08:00:20;;;;;;;4.88;2.40;;;24.10;79.60;;;;;;5032396;28;20042;-38
2022/08/25 08:02:46;;;;;;;4.85;2.50;;;24.20;79.40;;;;;;5033555;28;20087;-36
2022/08/25 08:05:13;;;;;;;5.20;2.67;;;24.30;79.00;;;;;;5037624;28;20041;-37
2022/08/25 08:07:39;;;;;;;4.35;2.42;;;24.40;79.00;;;;;;5032176;28;20160;-39
2022/08/25 08:10:08;;;;;;;5.53;2.28;;;24.40;78.60;;;;;;5034748;28;20073;-40
2022/08/25 08:12:34;;;;;;;6.25;2.20;;;24.50;78.30;;;;;;5036369;28;20581;-38
2022/08/25 08:15:00;;;;;;;7.47;2.75;;;24.60;78.00;;;;;;5040130;28;20520;-37
2022/08/25 08:17:26;;;;;;;6.32;2.50;;;24.80;77.40;;;;;;5038141;28;20120;-36
2022/08/25 08:19:51;;;;;;;6.45;2.13;;;24.80;77.00;;;;;;5039076;28;20053;-41
2022/08/25 08:22:17;;;;;;;8.23;2.20;;;24.90;76.80;;;;;;5038385;28;20044;-36
2022/08/25 08:24:44;;;;;;;3.13;1.90;;;25.10;76.50;;;;;;5040203;28;20512;-36
2022/08/25 08:27:12;;;;;;;4.95;2.30;;;25.20;76.20;;;;;;5038575;28;20051;-38
2022/08/25 08:29:39;;;;;;;7.82;2.40;;;25.30;75.60;;;;;;5037700;28;20033;-37
2022/08/25 08:32:07;;;;;;;7.95;2.20;;;25.30;75.10;;;;;;5036259;28;20115;-39
2022/08/25 08:34:33;;;;;;;3.53;2.03;;;25.50;75.30;;;;;;5041151;28;20036;-38
2022/08/25 08:36:59;;;;;;;5.05;2.55;;;25.60;75.10;;;;;;5040811;28;20087;-38
2022/08/25 08:39:25;;;;;;;3.85;2.15;;;25.70;74.10;;;;;;5024546;28;20140;-39
2022/08/25 08:42:17;;;;;;;5.25;2.03;;;25.80;73.00;;;;;;5027024;28;20048;-40
2022/08/25 08:44:52;;;;;;;7.00;2.20;;;25.90;72.00;;;;;;5023119;28;20045;-39
2022/08/25 08:47:41;;;;;;;3.80;2.13;;;26.00;71.80;;;;;;5035983;28;20082;-36
2022/08/25 08:50:20;;;;;;;4.88;2.30;;;26.10;69.50;;;;;;5040483;28;20087;-37
2022/08/25 08:52:56;;;;;;;5.88;2.30;;;26.20;70.00;;;;;;5041961;28;20039;-36
2022/08/25 08:55:44;;;;;;;4.45;2.40;;;26.40;69.90;;;;;;5042646;28;20038;-36
2022/08/25 08:58:35;;;;;;;3.38;2.05;;;26.50;69.50;;;;;;5035412;28;20044;-41
2022/08/25 09:01:00;;;;;;;6.72;2.00;;;26.60;67.60;;;;;;5038862;28;20044;-38
2022/08/25 09:03:42;;;;;;;3.45;2.08;;;26.70;68.10;;;;;;5035803;28;20547;-37
2022/08/25 09:06:31;;;;;;;4.30;2.10;;;26.80;66.60;;;;;;5039990;28;20437;-36
2022/08/25 09:09:00;;;;;;;6.28;2.67;;;26.90;65.20;;;;;;5036551;28;20609;-35
2022/08/25 09:11:48;;;;;;;5.88;1.90;;;27.00;65.10;;;;;;5043575;28;20037;-35
2022/08/25 09:14:38;;;;;;;7.18;1.80;;;27.10;64.10;;;;;;5040833;28;22021;-35
2022/08/25 09:17:20;;;;;;;5.80;1.80;;;27.30;63.70;;;;;;5038585;28;20068;-35
2022/08/25 09:20:12;;;;;;;5.68;1.95;;;27.40;62.20;;;;;;5037953;28;20191;-34
2022/08/25 09:22:53;;;;;;;4.93;1.80;;;27.50;59.30;;;;;;5038283;28;20041;-36
2022/08/25 09:26:09;;;;;;;4.72;1.65;;;27.60;58.20;;;;;;5036058;28;20112;-34
2022/08/25 09:28:38;;;;;;;3.92;1.50;;;27.70;55.10;;;;;;5027199;28;20049;-35
2022/08/25 09:31:15;;;;;;;5.30;1.75;;;27.80;54.70;;;;;;5037449;28;20045;-35
2022/08/25 09:33:41;;;;;;;4.38;1.65;;;27.90;51.00;;;;;;5039286;28;20033;-35
2022/08/25 09:36:07;;;;;;;4.10;1.75;;;28.00;51.30;;;;;;5034745;28;20037;-35
2022/08/25 09:38:33;;;;;;;4.03;1.30;;;28.10;51.40;;;;;;5034557;28;20524;-36
2022/08/25 09:41:00;;;;;;;3.53;1.45;;;28.30;50.50;;;;;;5038254;28;20029;-36
2022/08/25 09:43:33;;;;;;;3.33;1.60;;;28.40;49.50;;;;;;5038679;28;20447;-35
2022/08/25 09:46:01;;;;;;;5.28;1.33;;;28.50;48.20;;;;;;5035161;28;20041;-35
2022/08/25 09:48:53;;;;;;;2.80;1.38;;;28.50;47.80;;;;;;5043627;28;20036;-35
2022/08/25 09:51:31;;;;;;;4.03;2.10;;;28.60;47.50;;;;;;5037965;28;20034;-35
2022/08/25 09:54:25;;;;;;;4.63;1.77;;;28.70;46.70;;;;;;5038063;28;20033;-37
2022/08/25 09:56:57;;;;;;;5.70;1.52;;;28.80;46.70;;;;;;5040331;28;20056;-36
2022/08/25 09:59:24;;;;;;;3.38;1.77;;;29.00;46.10;;;;;;5042617;28;20049;-36
2022/08/25 10:01:52;;;;;;;3.05;1.35;;;29.00;45.30;;;;;;5039007;28;20049;-35
2022/08/25 10:04:37;;;;;;;2.47;1.45;;;29.10;44.50;;;;;;5038944;28;20125;-34
2022/08/25 10:07:26;;;;;;;4.80;1.40;;;29.10;44.10;;;;;;5040779;28;20551;-35
2022/08/25 10:09:55;;;;;;;2.65;1.30;;;29.20;44.30;;;;;;5037497;28;20182;-35
2022/08/25 10:12:28;;;;;;;3.38;1.35;;;29.40;45.40;;;;;;5039315;28;20041;-34
2022/08/25 10:14:54;;;;;;;3.33;1.42;;;29.60;43.80;;;;;;5036644;28;20090;-36
2022/08/25 10:17:29;;;;;;;3.22;1.65;;;29.70;43.20;;;;;;5038322;28;20041;-37
2022/08/25 10:20:10;;;;;;;3.20;1.70;;;29.80;42.10;;;;;;5039244;28;20052;-35
2022/08/25 10:22:37;;;;;;;3.00;1.73;;;29.90;42.10;;;;;;5042708;28;20549;-34
2022/08/25 10:25:06;;;;;;;5.93;1.73;;;30.00;42.10;;;;;;5041976;28;20032;-36
2022/08/25 10:27:46;;;;;;;5.03;1.63;;;30.10;41.70;;;;;;5038938;28;20036;-35
2022/08/25 10:30:18;;;;;;;3.00;1.67;;;30.20;40.60;;;;;;5041917;28;20098;-36
2022/08/25 10:32:54;;;;;;;4.53;1.67;;;30.30;40.50;;;;;;5037260;28;20125;-35
2022/08/25 10:35:27;;;;;;;7.78;1.27;;;30.40;40.60;;;;;;5043747;28;20083;-35
2022/08/25 10:38:37;;;;;;;2.42;1.42;;;30.40;40.50;;;;;;5041375;28;20327;-35
2022/08/25 10:41:25;;;;;;;5.15;1.63;;;30.50;39.00;;;;;;5029065;28;20506;-37
2022/08/25 10:47:22;;;;;;;3.33;1.55;;;30.80;39.30;;;;;;5040809;28;20041;-39
2022/08/25 10:49:55;;;;;;;2.60;1.60;;;30.90;38.50;;;;;;5035582;28;20125;-35
2022/08/25 10:52:26;;;;;;;3.05;1.30;;;30.90;39.30;;;;;;5043189;28;20037;-36
2022/08/25 10:55:11;;;;;;;3.00;1.50;;;31.00;39.70;;;;;;5037446;28;20124;-35
2022/08/25 10:57:51;;;;;;;4.35;1.70;;;31.10;39.50;;;;;;5035010;28;20046;-35
2022/08/25 11:00:25;;;;;;;2.10;1.50;;;31.10;40.60;;;;;;5039655;28;20491;-33
2022/08/25 11:03:30;;;;;;;2.60;1.48;;;31.20;39.30;;;;;;5042898;28;20056;-33
2022/08/25 11:06:06;;;;;;;2.58;1.35;;;31.40;39.30;;;;;;5037520;28;20103;-36
2022/08/25 11:08:55;;;;;;;7.10;1.75;;;31.40;38.90;;;;;;5037377;28;20049;-34
2022/08/25 11:11:36;;;;;;;2.70;1.27;;;31.60;38.10;;;;;;5031245;28;20048;-34
2022/08/25 11:14:09;;;;;;;2.47;1.48;;;31.60;37.10;;;;;;5039165;28;20116;-36
2022/08/25 11:16:40;;;;;;;2.20;1.30;;;31.60;37.30;;;;;;5041407;28;20041;-34
2022/08/25 11:19:16;;;;;;;2.25;1.40;;;31.70;37.40;;;;;;5043418;28;20132;-37
2022/08/25 11:22:13;;;;;;;3.70;1.40;;;31.90;37.40;;;;;;5033559;28;20049;-34
2022/08/25 11:25:12;;;;;;;6.68;1.42;;;31.90;36.00;;;;;;5037370;28;20398;-33
2022/08/25 11:28:15;;;;;;;5.32;1.58;;;31.90;35.20;;;;;;5037836;28;20118;-33
2022/08/25 11:30:43;;;;;;;2.35;1.58;;;31.90;35.70;;;;;;5041167;28;20040;-36
2022/08/25 11:33:16;;;;;;;4.30;1.73;;;31.80;36.20;;;;;;5041023;28;20041;-34
2022/08/25 11:36:02;;;;;;;4.22;1.85;;;31.90;36.30;;;;;;5040354;28;20132;-35
2022/08/25 11:38:51;;;;;;;2.13;1.33;;;32.00;35.40;;;;;;5034152;28;20110;-36
2022/08/25 11:41:22;;;;;;;2.05;1.55;;;32.00;35.30;;;;;;5037252;28;20510;-35
2022/08/25 11:43:51;;;;;;;3.83;1.50;;;32.10;35.50;;;;;;5038414;28;20063;-35
2022/08/25 11:46:16;;;;;;;2.72;1.50;;;32.20;35.50;;;;;;5034963;28;20100;-37
2022/08/25 11:49:19;;;;;;;2.90;1.20;;;32.20;34.70;;;;;;5043543;28;20041;-34
2022/08/25 11:51:47;;;;;;;3.03;1.80;;;32.30;34.00;;;;;;5033520;28;20577;-34
2022/08/25 11:54:15;;;;;;;3.42;1.40;;;32.40;34.30;;;;;;5034743;28;20120;-33
2022/08/25 11:56:42;;;;;;;4.10;1.65;;;32.50;34.30;;;;;;5034419;28;20108;-34
2022/08/25 11:59:08;;;;;;;1.50;1.15;;;32.40;33.70;;;;;;5039679;28;20041;-37
2022/08/25 12:01:39;;;;;;;2.60;1.40;;;32.50;33.70;;;;;;5043385;28;20034;-38
2022/08/25 12:04:37;;;;;;;2.13;1.20;;;32.50;32.90;;;;;;5040876;28;20036;-36
2022/08/25 12:07:05;;;;;;;2.45;1.45;;;32.50;33.00;;;;;;5045121;28;20057;-36
2022/08/25 12:09:32;;;;;;;4.47;2.67;;;32.60;33.40;;;;;;5041381;28;20048;-37
2022/08/25 12:12:18;;;;;;;3.30;1.33;;;32.70;33.70;;;;;;5042380;28;20529;-37
2022/08/25 12:14:45;;;;;;;2.80;1.30;;;32.70;32.70;;;;;;5039869;28;20038;-36
2022/08/25 12:17:19;;;;;;;1.75;1.20;;;32.90;32.90;;;;;;5043408;28;20055;-38
2022/08/25 12:19:44;;;;;;;2.42;1.27;;;33.00;31.70;;;;;;5042401;28;20053;-35
2022/08/25 12:22:10;;;;;;;3.05;1.48;;;33.10;32.40;;;;;;5040790;28;20453;-37
2022/08/25 12:24:42;;;;;;;5.28;1.52;;;33.10;32.40;;;;;;5044136;28;20041;-38
2022/08/25 12:27:29;;;;;;;3.58;1.75;;;33.30;31.90;;;;;;5037104;28;20083;-39
2022/08/25 12:30:12;;;;;;;4.47;1.40;;;33.40;31.70;;;;;;5036565;28;20040;-36
2022/08/25 12:33:12;;;;;;;4.55;1.33;;;33.50;31.70;;;;;;5040126;28;20041;-35
2022/08/25 12:35:49;;;;;;;2.83;1.60;;;33.70;31.60;;;;;;5043040;28;20495;-36
2022/08/25 12:38:24;;;;;;;4.22;1.40;;;33.70;31.40;;;;;;5041001;28;20048;-36
2022/08/25 12:40:50;;;;;;;2.58;1.58;;;33.80;31.40;;;;;;5038850;28;20037;-35
2022/08/25 12:43:18;;;;;;;2.30;1.00;;;33.80;31.40;;;;;;5038522;28;20033;-35
2022/08/25 12:45:46;;;;;;;6.28;1.20;;;33.90;30.90;;;;;;5040674;28;20060;-35
2022/08/25 12:48:27;;;;;;;3.97;1.00;;;34.00;30.30;;;;;;5039288;28;20041;-36
2022/08/25 12:51:06;;;;;;;3.00;1.37;;;34.20;29.50;;;;;;5044300;28;20052;-36
2022/08/25 12:53:44;;;;;;;2.20;1.23;;;34.30;29.60;;;;;;5045771;28;20052;-36
2022/08/25 12:56:26;;;;;;;1.83;1.10;;;34.30;28.90;;;;;;5042396;28;20482;-36
2022/08/25 12:59:02;;;;;;;;;;;34.30;29.30;;;;;;5045045;28;20045;-36
2022/08/25 13:01:53;;;;;;;2.35;1.02;;;34.40;28.40;;;;;;5042305;28;19960;-35
2022/08/25 13:04:40;;;;;;;2.25;1.00;;;34.50;29.30;;;;;;5036733;28;20163;-38
2022/08/25 13:07:41;;;;;;;1.38;0.77;;;34.50;28.30;;;;;;5038157;28;20095;-36
2022/08/25 13:10:23;;;;;;;1.63;1.05;;;34.60;28.40;;;;;;5035465;28;20075;-44
2022/08/25 13:13:33;;;;;;;3.72;1.50;;;34.90;28.40;;;;;;5038265;28;20038;-36
2022/08/25 13:16:05;;;;;;;3.38;1.13;;;35.20;27.60;;;;;;5035170;28;20033;-36
2022/08/25 13:18:34;;;;;;;3.42;1.20;;;35.80;27.90;;;;;;5038849;28;20051;-41
2022/08/25 13:21:14;;;;;;;2.92;1.08;;;36.10;27.30;;;;;;5037100;28;20044;-35